createdAt,value
2019-05-13T00:00:07.039Z,1030.92
2019-05-13T00:01:07.352Z,1030.91
2019-05-13T00:02:07.020Z,1030.94
2019-05-13T00:03:07.002Z,1030.90
2019-05-13T00:04:07.002Z,1030.87
2019-05-13T00:05:07.001Z,1030.91
2019-05-13T00:06:06.975Z,1030.90
2019-05-13T00:07:06.967Z,1030.94
2019-05-13T00:08:06.948Z,1030.95
2019-05-13T00:09:06.935Z,1030.96
2019-05-13T00:10:06.924Z,1030.99
2019-05-13T00:11:06.933Z,1030.94
2019-05-13T00:12:06.924Z,1031.02
2019-05-13T00:13:06.902Z,1030.99
2019-05-13T00:14:06.884Z,1031.03
2019-05-13T00:15:06.886Z,1030.99
2019-05-13T00:16:06.859Z,1031.01
2019-05-13T00:17:06.855Z,1030.99
2019-05-13T00:18:07.130Z,1030.96
2019-05-13T00:19:06.858Z,1031.00
2019-05-13T00:20:06.814Z,1030.98
2019-05-13T00:21:06.808Z,1030.97
2019-05-13T00:22:06.798Z,1030.93
2019-05-13T00:23:06.782Z,1030.94
2019-05-13T00:24:06.784Z,1030.95
2019-05-13T00:25:06.760Z,1030.99
2019-05-13T00:26:06.749Z,1030.96
2019-05-13T00:27:06.747Z,1030.94
2019-05-13T00:28:06.731Z,1030.95
2019-05-13T00:29:06.715Z,1030.92
2019-05-13T00:30:06.712Z,1030.94
2019-05-13T00:31:06.735Z,1030.96
2019-05-13T00:32:06.687Z,1030.96
2019-05-13T00:33:06.669Z,1030.96
2019-05-13T00:34:06.660Z,1030.98
2019-05-13T00:35:06.648Z,1030.96
2019-05-13T00:36:06.640Z,1030.98
2019-05-13T00:37:10.817Z,1030.98
2019-05-13T00:38:06.614Z,1030.95
2019-05-13T00:39:06.612Z,1031.00
2019-05-13T00:40:06.592Z,1031.02
2019-05-13T00:41:06.581Z,1030.99
2019-05-13T00:42:06.576Z,1031.06
2019-05-13T00:43:06.582Z,1031.03
2019-05-13T00:44:06.548Z,1031.03
2019-05-13T00:45:06.546Z,1031.01
2019-05-13T00:46:06.526Z,1031.01
2019-05-13T00:47:06.525Z,1030.97
2019-05-13T00:48:06.506Z,1031.00
2019-05-13T00:49:06.504Z,1030.98
2019-05-13T00:50:06.490Z,1031.01
2019-05-13T00:51:06.489Z,1030.99
2019-05-13T00:52:06.471Z,1030.97
2019-05-13T00:53:06.471Z,1030.98
2019-05-13T00:54:06.447Z,1030.96
2019-05-13T00:55:09.592Z,1030.91
2019-05-13T00:56:06.430Z,1030.92
2019-05-13T00:57:06.422Z,1030.92
2019-05-13T00:58:06.438Z,1030.91
2019-05-13T00:59:06.391Z,1030.89
2019-05-13T01:00:06.385Z,1030.88
2019-05-13T01:01:06.388Z,1030.91
2019-05-13T01:02:06.370Z,1030.90
2019-05-13T01:03:06.363Z,1030.94
2019-05-13T01:04:06.353Z,1030.94
2019-05-13T01:05:06.330Z,1030.89
2019-05-13T01:06:06.310Z,1030.91
2019-05-13T01:07:06.296Z,1030.91
2019-05-13T01:08:06.313Z,1030.91
2019-05-13T01:09:06.291Z,1030.92
2019-05-13T01:10:06.271Z,1030.87
2019-05-13T01:11:06.269Z,1030.88
2019-05-13T01:12:06.242Z,1030.93
2019-05-13T01:13:06.236Z,1030.89
2019-05-13T01:14:06.234Z,1030.92
2019-05-13T01:15:06.219Z,1030.91
2019-05-13T01:16:06.224Z,1030.90
2019-05-13T01:17:06.206Z,1030.95
2019-05-13T01:18:06.200Z,1030.92
2019-05-13T01:19:06.167Z,1030.94
2019-05-13T01:20:06.168Z,1030.95
2019-05-13T01:21:06.143Z,1030.92
2019-05-13T01:22:06.131Z,1030.93
2019-05-13T01:23:06.144Z,1030.93
2019-05-13T01:24:06.127Z,1030.88
2019-05-13T01:25:06.115Z,1030.87
2019-05-13T01:26:06.116Z,1030.87
2019-05-13T01:27:06.079Z,1030.87
2019-05-13T01:28:06.078Z,1030.86
2019-05-13T01:29:06.054Z,1030.90
2019-05-13T01:30:06.047Z,1030.90
2019-05-13T01:31:06.060Z,1030.92
2019-05-13T01:32:06.044Z,1030.93
2019-05-13T01:33:06.010Z,1030.93
2019-05-13T01:34:06.120Z,1030.96
2019-05-13T01:35:05.988Z,1030.97
2019-05-13T01:36:05.976Z,1030.93
2019-05-13T01:37:05.964Z,1030.94
2019-05-13T01:38:05.954Z,1030.99
2019-05-13T01:39:05.962Z,1030.98
2019-05-13T01:40:05.943Z,1031.02
2019-05-13T01:41:05.920Z,1031.01
2019-05-13T01:42:05.910Z,1031.00
2019-05-13T01:43:05.932Z,1030.99
2019-05-13T01:44:05.899Z,1030.98
2019-05-13T01:45:05.875Z,1031.01
2019-05-13T01:46:05.879Z,1030.99
2019-05-13T01:47:05.862Z,1030.98
2019-05-13T01:48:07.629Z,1030.99
2019-05-13T01:49:05.848Z,1030.96
2019-05-13T01:50:05.827Z,1031.00
2019-05-13T01:51:05.829Z,1031.04
2019-05-13T01:52:05.801Z,1030.99
2019-05-13T01:53:05.810Z,1031.05
2019-05-13T01:54:05.814Z,1031.07
2019-05-13T01:55:05.771Z,1031.04
2019-05-13T01:56:05.754Z,1031.07
2019-05-13T01:57:05.757Z,1031.06
2019-05-13T01:58:05.732Z,1031.06
2019-05-13T01:59:06.155Z,1031.05
2019-05-13T02:00:05.726Z,1031.03
2019-05-13T02:01:05.701Z,1031.08
2019-05-13T02:02:05.713Z,1031.06
2019-05-13T02:03:05.678Z,1031.10
2019-05-13T02:04:05.672Z,1031.06
2019-05-13T02:05:05.656Z,1031.11
2019-05-13T02:06:05.648Z,1031.14
2019-05-13T02:07:05.646Z,1031.13
2019-05-13T02:08:05.634Z,1031.14
2019-05-13T02:09:05.654Z,1031.16
2019-05-13T02:10:05.600Z,1031.18
2019-05-13T02:11:05.588Z,1031.15
2019-05-13T02:12:05.579Z,1031.19
2019-05-13T02:13:05.570Z,1031.18
2019-05-13T02:14:05.832Z,1031.17
2019-05-13T02:15:05.554Z,1031.21
2019-05-13T02:16:05.559Z,1031.22
2019-05-13T02:17:05.553Z,1031.22
2019-05-13T02:18:05.513Z,1031.22
2019-05-13T02:19:05.528Z,1031.28
2019-05-13T02:20:05.504Z,1031.27
2019-05-13T02:21:05.778Z,1031.26
2019-05-13T02:22:05.483Z,1031.27
2019-05-13T02:23:05.463Z,1031.28
2019-05-13T02:24:05.466Z,1031.27
2019-05-13T02:25:05.441Z,1031.23
2019-05-13T02:26:05.421Z,1031.26
2019-05-13T02:27:05.430Z,1031.20
2019-05-13T02:28:09.492Z,1031.22
2019-05-13T02:29:06.389Z,1031.24
2019-05-13T02:30:05.979Z,1031.23
2019-05-13T02:31:05.379Z,1031.22
2019-05-13T02:32:05.419Z,1031.24
2019-05-13T02:33:05.368Z,1031.28
2019-05-13T02:34:05.397Z,1031.27
2019-05-13T02:35:05.330Z,1031.26
2019-05-13T02:36:05.312Z,1031.26
2019-05-13T02:37:05.299Z,1031.27
2019-05-13T02:38:19.865Z,1031.26
2019-05-13T02:39:06.289Z,1031.31
2019-05-13T02:40:05.314Z,1031.31
2019-05-13T02:41:05.257Z,1031.35
2019-05-13T02:42:05.245Z,1031.32
2019-05-13T02:43:05.249Z,1031.28
2019-05-13T02:44:05.225Z,1031.30
2019-05-13T02:45:05.223Z,1031.31
2019-05-13T02:46:05.229Z,1031.32
2019-05-13T02:47:05.188Z,1031.35
2019-05-13T02:48:05.179Z,1031.33
2019-05-13T02:49:05.368Z,1031.26
2019-05-13T02:50:05.467Z,1031.36
2019-05-13T02:51:05.145Z,1031.35
2019-05-13T02:52:05.170Z,1031.37
2019-05-13T02:53:05.144Z,1031.39
2019-05-13T02:54:05.111Z,1031.39
2019-05-13T02:55:05.104Z,1031.41
2019-05-13T02:56:05.090Z,1031.41
2019-05-13T02:57:05.081Z,1031.43
2019-05-13T02:58:05.075Z,1031.46
2019-05-13T02:59:05.060Z,1031.44
2019-05-13T03:00:05.064Z,1031.50
2019-05-13T03:01:05.033Z,1031.49
2019-05-13T03:02:05.071Z,1031.46
2019-05-13T03:03:05.012Z,1031.45
2019-05-13T03:04:05.002Z,1031.44
2019-05-13T03:05:05.006Z,1031.48
2019-05-13T03:06:04.987Z,1031.48
2019-05-13T03:07:05.006Z,1031.51
2019-05-13T03:08:04.987Z,1031.46
2019-05-13T03:09:04.946Z,1031.45
2019-05-13T03:10:04.982Z,1031.44
2019-05-13T03:11:04.938Z,1031.38
2019-05-13T03:12:04.916Z,1031.44
2019-05-13T03:13:04.914Z,1031.46
2019-05-13T03:14:04.902Z,1031.44
2019-05-13T03:15:04.900Z,1031.46
2019-05-13T03:16:04.880Z,1031.47
2019-05-13T03:17:04.868Z,1031.52
2019-05-13T03:18:04.889Z,1031.51
2019-05-13T03:19:04.841Z,1031.49
2019-05-13T03:20:04.855Z,1031.47
2019-05-13T03:21:04.829Z,1031.51
2019-05-13T03:22:04.801Z,1031.56
2019-05-13T03:23:04.806Z,1031.54
2019-05-13T03:24:04.788Z,1031.55
2019-05-13T03:25:04.786Z,1031.58
2019-05-13T03:26:04.788Z,1031.56
2019-05-13T03:27:04.746Z,1031.51
2019-05-13T03:28:04.744Z,1031.56
2019-05-13T03:29:04.730Z,1031.55
2019-05-13T03:30:05.037Z,1031.56
2019-05-13T03:31:06.986Z,1031.58
2019-05-13T03:32:06.715Z,1031.56
2019-05-13T03:33:10.671Z,1031.59
2019-05-13T03:34:07.286Z,1031.60
2019-05-13T03:35:07.333Z,1031.57
2019-05-13T03:36:07.588Z,1031.55
2019-05-13T03:37:06.487Z,1031.55
2019-05-13T03:38:04.638Z,1031.59
2019-05-13T03:39:10.630Z,1031.57
2019-05-13T03:40:04.608Z,1031.61
2019-05-13T03:41:04.603Z,1031.64
2019-05-13T03:42:04.589Z,1031.63
2019-05-13T03:43:04.579Z,1031.66
2019-05-13T03:44:04.555Z,1031.67
2019-05-13T03:45:04.558Z,1031.67
2019-05-13T03:46:04.546Z,1031.68
2019-05-13T03:47:04.524Z,1031.68
2019-05-13T03:48:04.695Z,1031.64
2019-05-13T03:49:04.519Z,1031.69
2019-05-13T03:50:04.495Z,1031.66
2019-05-13T03:51:04.502Z,1031.68
2019-05-13T03:52:04.475Z,1031.64
2019-05-13T03:53:04.467Z,1031.66
2019-05-13T03:54:04.447Z,1031.71
2019-05-13T03:55:04.448Z,1031.75
2019-05-13T03:56:04.429Z,1031.73
2019-05-13T03:57:04.424Z,1031.74
2019-05-13T03:58:04.438Z,1031.72
2019-05-13T03:59:04.400Z,1031.77
2019-05-13T04:00:04.397Z,1031.76
2019-05-13T04:01:04.398Z,1031.76
2019-05-13T04:02:04.362Z,1031.80
2019-05-13T04:03:04.359Z,1031.80
2019-05-13T04:04:04.335Z,1031.82
2019-05-13T04:05:04.467Z,1031.80
2019-05-13T04:06:04.375Z,1031.83
2019-05-13T04:07:04.319Z,1031.80
2019-05-13T04:08:04.303Z,1031.82
2019-05-13T04:09:20.851Z,1031.81
2019-05-13T04:10:05.271Z,1031.85
2019-05-13T04:11:04.262Z,1031.87
2019-05-13T04:12:04.256Z,1031.90
2019-05-13T04:13:04.324Z,1031.87
2019-05-13T04:14:04.232Z,1031.88
2019-05-13T04:15:04.304Z,1031.89
2019-05-13T04:16:04.546Z,1031.89
2019-05-13T04:17:04.201Z,1031.91
2019-05-13T04:18:04.180Z,1031.94
2019-05-13T04:19:04.169Z,1031.96
2019-05-13T04:20:04.166Z,1031.92
2019-05-13T04:21:04.167Z,1031.90
2019-05-13T04:22:04.156Z,1031.96
2019-05-13T04:23:04.124Z,1031.97
2019-05-13T04:24:04.456Z,1031.97
2019-05-13T04:25:04.109Z,1031.97
2019-05-13T04:26:04.103Z,1031.98
2019-05-13T04:27:04.103Z,1032.07
2019-05-13T04:28:04.077Z,1032.04
2019-05-13T04:29:04.318Z,1032.08
2019-05-13T04:30:04.116Z,1032.07
2019-05-13T04:31:04.058Z,1032.11
2019-05-13T04:32:04.071Z,1032.08
2019-05-13T04:33:04.015Z,1032.10
2019-05-13T04:34:04.029Z,1032.10
2019-05-13T04:35:04.406Z,1032.12
2019-05-13T04:36:03.998Z,1032.12
2019-05-13T04:37:04.003Z,1032.14
2019-05-13T04:38:08.957Z,1032.13
2019-05-13T04:39:04.950Z,1032.11
2019-05-13T04:40:04.228Z,1032.14
2019-05-13T04:41:04.176Z,1032.10
2019-05-13T04:42:03.920Z,1032.16
2019-05-13T04:43:03.925Z,1032.16
2019-05-13T04:44:03.899Z,1032.16
2019-05-13T04:45:03.885Z,1032.18
2019-05-13T04:46:03.871Z,1032.18
2019-05-13T04:47:04.268Z,1032.16
2019-05-13T04:48:03.899Z,1032.16
2019-05-13T04:49:03.854Z,1032.19
2019-05-13T04:50:03.840Z,1032.13
2019-05-13T04:51:03.836Z,1032.14
2019-05-13T04:52:04.086Z,1032.12
2019-05-13T04:53:03.796Z,1032.14
2019-05-13T04:54:03.796Z,1032.08
2019-05-13T04:55:03.889Z,1032.10
2019-05-13T04:56:03.772Z,1032.14
2019-05-13T04:57:03.784Z,1032.11
2019-05-13T04:58:04.001Z,1032.12
2019-05-13T04:59:03.822Z,1032.13
2019-05-13T05:00:04.557Z,1032.12
2019-05-13T05:01:08.711Z,1032.11
2019-05-13T05:02:05.400Z,1032.17
2019-05-13T05:03:04.090Z,1032.14
2019-05-13T05:04:10.144Z,1032.15
2019-05-13T05:05:04.662Z,1032.16
2019-05-13T05:06:03.685Z,1032.17
2019-05-13T05:07:03.683Z,1032.17
2019-05-13T05:08:03.637Z,1032.19
2019-05-13T05:09:03.632Z,1032.17
2019-05-13T05:10:17.430Z,1032.19
2019-05-13T05:11:04.592Z,1032.18
2019-05-13T05:12:03.591Z,1032.21
2019-05-13T05:13:03.587Z,1032.18
2019-05-13T05:14:03.561Z,1032.18
2019-05-13T05:15:03.564Z,1032.17
2019-05-13T05:16:03.553Z,1032.19
2019-05-13T05:17:03.643Z,1032.20
2019-05-13T05:18:03.522Z,1032.19
2019-05-13T05:19:03.565Z,1032.18
2019-05-13T05:20:04.080Z,1032.21
2019-05-13T05:21:03.483Z,1032.26
2019-05-13T05:22:03.604Z,1032.18
2019-05-13T05:23:03.494Z,1032.15
2019-05-13T05:24:03.454Z,1032.15
2019-05-13T05:25:03.445Z,1032.18
2019-05-13T05:26:03.463Z,1032.18
2019-05-13T05:27:03.425Z,1032.17
2019-05-13T05:28:03.415Z,1032.18
2019-05-13T05:29:03.409Z,1032.19
2019-05-13T05:30:03.395Z,1032.21
2019-05-13T05:31:03.373Z,1032.21
2019-05-13T05:32:03.367Z,1032.22
2019-05-13T05:33:03.350Z,1032.22
2019-05-13T05:34:06.473Z,1032.23
2019-05-13T05:35:03.327Z,1032.22
2019-05-13T05:36:03.328Z,1032.22
2019-05-13T05:37:03.308Z,1032.22
2019-05-13T05:38:03.295Z,1032.25
2019-05-13T05:39:03.300Z,1032.25
2019-05-13T05:40:03.276Z,1032.24
2019-05-13T05:41:03.265Z,1032.28
2019-05-13T05:42:03.263Z,1032.25
2019-05-13T05:43:03.241Z,1032.25
2019-05-13T05:44:03.237Z,1032.23
2019-05-13T05:45:03.221Z,1032.23
2019-05-13T05:46:03.207Z,1032.25
2019-05-13T05:47:03.227Z,1032.26
2019-05-13T05:48:03.194Z,1032.24
2019-05-13T05:49:03.222Z,1032.24
2019-05-13T05:50:03.316Z,1032.25
2019-05-13T05:51:03.167Z,1032.25
2019-05-13T05:52:03.144Z,1032.29
2019-05-13T05:53:03.153Z,1032.31
2019-05-13T05:54:03.126Z,1032.28
2019-05-13T05:55:03.149Z,1032.27
2019-05-13T05:56:03.118Z,1032.30
2019-05-13T05:57:03.085Z,1032.28
2019-05-13T05:58:03.074Z,1032.29
2019-05-13T05:59:03.089Z,1032.29
2019-05-13T06:00:03.057Z,1032.31
2019-05-13T06:01:03.055Z,1032.30
2019-05-13T06:02:03.047Z,1032.28
2019-05-13T06:03:03.053Z,1032.32
2019-05-13T06:04:03.013Z,1032.33
2019-05-13T06:05:02.998Z,1032.31
2019-05-13T06:06:02.988Z,1032.34
2019-05-13T06:07:03.463Z,1032.34
2019-05-13T06:08:02.965Z,1032.37
2019-05-13T06:09:03.403Z,1032.37
2019-05-13T06:10:02.946Z,1032.35
2019-05-13T06:11:02.966Z,1032.37
2019-05-13T06:12:02.946Z,1032.37
2019-05-13T06:13:02.909Z,1032.35
2019-05-13T06:14:02.913Z,1032.33
2019-05-13T06:15:02.910Z,1032.34
2019-05-13T06:16:02.892Z,1032.37
2019-05-13T06:17:03.081Z,1032.35
2019-05-13T06:18:02.876Z,1032.29
2019-05-13T06:19:02.863Z,1032.32
2019-05-13T06:20:04.016Z,1032.31
2019-05-13T06:21:02.836Z,1032.32
2019-05-13T06:22:02.896Z,1032.33
2019-05-13T06:23:02.798Z,1032.29
2019-05-13T06:24:02.964Z,1032.28
2019-05-13T06:25:02.821Z,1032.32
2019-05-13T06:26:02.765Z,1032.25
2019-05-13T06:27:02.754Z,1032.31
2019-05-13T06:28:02.755Z,1032.34
2019-05-13T06:29:02.858Z,1032.36
2019-05-13T06:30:02.743Z,1032.31
2019-05-13T06:31:02.783Z,1032.35
2019-05-13T06:32:18.258Z,1032.35
2019-05-13T06:33:03.695Z,1032.35
2019-05-13T06:34:02.679Z,1032.32
2019-05-13T06:35:02.673Z,1032.37
2019-05-13T06:36:02.660Z,1032.41
2019-05-13T06:37:02.687Z,1032.42
2019-05-13T06:38:02.631Z,1032.41
2019-05-13T06:39:02.623Z,1032.40
2019-05-13T06:40:02.622Z,1032.43
2019-05-13T06:41:07.237Z,1032.48
2019-05-13T06:42:03.588Z,1032.47
2019-05-13T06:43:02.579Z,1032.45
2019-05-13T06:44:02.842Z,1032.50
2019-05-13T06:45:02.572Z,1032.40
2019-05-13T06:46:02.561Z,1032.43
2019-05-13T06:47:02.992Z,1032.45
2019-05-13T06:48:02.586Z,1032.46
2019-05-13T06:49:03.034Z,1032.40
2019-05-13T06:50:03.379Z,1032.46
2019-05-13T06:51:02.761Z,1032.50
2019-05-13T06:52:02.494Z,1032.49
2019-05-13T06:53:02.525Z,1032.50
2019-05-13T06:54:02.547Z,1032.45
2019-05-13T06:55:02.866Z,1032.51
2019-05-13T06:56:02.449Z,1032.49
2019-05-13T06:57:05.059Z,1032.52
2019-05-13T06:58:02.421Z,1032.52
2019-05-13T06:59:02.417Z,1032.47
2019-05-13T07:00:02.434Z,1032.48
2019-05-13T07:01:03.820Z,1032.50
2019-05-13T07:02:02.517Z,1032.44
2019-05-13T07:03:02.496Z,1032.46
2019-05-13T07:04:02.626Z,1032.44
2019-05-13T07:05:02.574Z,1032.47
2019-05-13T07:06:02.350Z,1032.46
2019-05-13T07:07:12.388Z,1032.44
2019-05-13T07:08:03.333Z,1032.42
2019-05-13T07:09:02.319Z,1032.44
2019-05-13T07:10:02.741Z,1032.48
2019-05-13T07:11:14.101Z,1032.49
2019-05-13T07:12:03.601Z,1032.45
2019-05-13T07:13:02.392Z,1032.47
2019-05-13T07:14:02.677Z,1032.48
2019-05-13T07:15:02.776Z,1032.47
2019-05-13T07:16:02.217Z,1032.49
2019-05-13T07:17:02.417Z,1032.46
2019-05-13T07:18:02.478Z,1032.43
2019-05-13T07:19:02.717Z,1032.41
2019-05-13T07:20:02.506Z,1032.44
2019-05-13T07:21:02.408Z,1032.49
2019-05-13T07:22:02.970Z,1032.46
2019-05-13T07:23:02.148Z,1032.46
2019-05-13T07:24:02.525Z,1032.47
2019-05-13T07:25:02.697Z,1032.45
2019-05-13T07:26:02.132Z,1032.48
2019-05-13T07:27:02.365Z,1032.52
2019-05-13T07:28:02.342Z,1032.47
2019-05-13T07:29:03.600Z,1032.53
2019-05-13T07:30:02.444Z,1032.48
2019-05-13T07:31:02.366Z,1032.45
2019-05-13T07:32:02.319Z,1032.50
2019-05-13T07:33:02.053Z,1032.43
2019-05-13T07:34:02.461Z,1032.45
2019-05-13T07:35:03.930Z,1032.40
2019-05-13T07:36:03.060Z,1032.43
2019-05-13T07:37:02.328Z,1032.46
2019-05-13T07:38:02.259Z,1032.42
2019-05-13T07:39:01.977Z,1032.41
2019-05-13T07:40:02.723Z,1032.45
2019-05-13T07:41:01.977Z,1032.39
2019-05-13T07:42:05.400Z,1032.40
2019-05-13T07:43:01.936Z,1032.38
2019-05-13T07:44:02.629Z,1032.36
2019-05-13T07:45:01.900Z,1032.40
2019-05-13T07:46:02.254Z,1032.39
2019-05-13T07:47:03.673Z,1032.40
2019-05-13T07:48:01.892Z,1032.36
2019-05-13T07:49:02.326Z,1032.41
2019-05-13T07:50:02.669Z,1032.39
2019-05-13T07:51:04.615Z,1032.34
2019-05-13T07:52:02.027Z,1032.37
2019-05-13T07:53:02.392Z,1032.37
2019-05-13T07:54:02.398Z,1032.40
2019-05-13T07:55:01.928Z,1032.41
2019-05-13T07:56:02.138Z,1032.40
2019-05-13T07:57:02.293Z,1032.37
2019-05-13T07:58:02.238Z,1032.39
2019-05-13T07:59:02.089Z,1032.36
2019-05-13T08:00:02.250Z,1032.36
2019-05-13T08:01:02.566Z,1032.35
2019-05-13T08:02:02.586Z,1032.35
2019-05-13T08:03:01.784Z,1032.31
2019-05-13T08:04:02.311Z,1032.33
2019-05-13T08:05:02.554Z,1032.35
2019-05-13T08:06:02.168Z,1032.37
2019-05-13T08:07:02.321Z,1032.33
2019-05-13T08:08:02.362Z,1032.34
2019-05-13T08:09:02.004Z,1032.34
2019-05-13T08:10:03.466Z,1032.32
2019-05-13T08:11:01.627Z,1032.35
2019-05-13T08:12:09.664Z,1032.34
2019-05-13T08:13:02.577Z,1032.33
2019-05-13T08:14:01.899Z,1032.31
2019-05-13T08:15:03.117Z,1032.34
2019-05-13T08:16:02.079Z,1032.35
2019-05-13T08:17:02.741Z,1032.33
2019-05-13T08:18:02.189Z,1032.34
2019-05-13T08:19:01.951Z,1032.33
2019-05-13T08:20:02.844Z,1032.32
2019-05-13T08:21:02.170Z,1032.30
2019-05-13T08:22:02.265Z,1032.33
2019-05-13T08:23:02.602Z,1032.34
2019-05-13T08:24:02.686Z,1032.30
2019-05-13T08:25:03.120Z,1032.30
2019-05-13T08:26:02.239Z,1032.28
2019-05-13T08:27:02.447Z,1032.30
2019-05-13T08:28:02.078Z,1032.31
2019-05-13T08:29:05.327Z,1032.31
2019-05-13T08:30:01.790Z,1032.26
2019-05-13T08:31:02.068Z,1032.27
2019-05-13T08:32:02.748Z,1032.31
2019-05-13T08:33:01.950Z,1032.26
2019-05-13T08:34:02.477Z,1032.21
2019-05-13T08:35:08.650Z,1032.27
2019-05-13T08:36:02.341Z,1032.25
2019-05-13T08:37:02.858Z,1032.23
2019-05-13T08:38:01.545Z,1032.20
2019-05-13T08:39:02.662Z,1032.17
2019-05-13T08:40:01.749Z,1032.15
2019-05-13T08:41:02.104Z,1032.13
2019-05-13T08:42:12.735Z,1032.13
2019-05-13T08:43:02.259Z,1032.15
2019-05-13T08:44:01.847Z,1032.11
2019-05-13T08:45:02.017Z,1032.12
2019-05-13T08:46:01.942Z,1032.21
2019-05-13T08:47:03.098Z,1032.15
2019-05-13T08:48:01.992Z,1032.12
2019-05-13T08:49:03.777Z,1032.12
2019-05-13T08:50:04.234Z,1032.15
2019-05-13T08:51:03.095Z,1032.15
2019-05-13T08:52:01.792Z,1032.19
2019-05-13T08:53:01.817Z,1032.17
2019-05-13T08:54:02.431Z,1032.16
2019-05-13T08:55:01.958Z,1032.19
2019-05-13T08:56:01.719Z,1032.18
2019-05-13T08:57:03.003Z,1032.15
2019-05-13T08:58:01.881Z,1032.18
2019-05-13T08:59:01.267Z,1032.17
2019-05-13T09:00:05.103Z,1032.14
2019-05-13T09:01:02.170Z,1032.14
2019-05-13T09:02:03.156Z,1032.13
2019-05-13T09:03:01.735Z,1032.16
2019-05-13T09:04:02.236Z,1032.09
2019-05-13T09:05:02.349Z,1032.10
2019-05-13T09:06:02.744Z,1032.16
2019-05-13T09:07:02.207Z,1032.10
2019-05-13T09:08:01.381Z,1032.08
2019-05-13T09:09:02.451Z,1032.13
2019-05-13T09:10:01.828Z,1032.12
2019-05-13T09:11:01.736Z,1032.07
2019-05-13T09:12:02.549Z,1032.09
2019-05-13T09:13:01.862Z,1032.05
2019-05-13T09:14:02.245Z,1032.07
2019-05-13T09:15:03.366Z,1032.05
2019-05-13T09:16:02.365Z,1032.05
2019-05-13T09:17:01.866Z,1032.03
2019-05-13T09:18:02.316Z,1031.99
2019-05-13T09:19:03.650Z,1031.98
2019-05-13T09:20:02.862Z,1032.00
2019-05-13T09:21:02.523Z,1032.03
2019-05-13T09:22:02.976Z,1031.96
2019-05-13T09:23:02.111Z,1031.97
2019-05-13T09:24:02.227Z,1031.93
2019-05-13T09:25:02.170Z,1031.89
2019-05-13T09:26:02.540Z,1031.93
2019-05-13T09:27:01.920Z,1031.96
2019-05-13T09:28:02.607Z,1031.88
2019-05-13T09:29:01.485Z,1031.89
2019-05-13T09:30:02.785Z,1031.96
2019-05-13T09:31:01.990Z,1031.94
2019-05-13T09:32:03.771Z,1031.92
2019-05-13T09:33:02.013Z,1031.94
2019-05-13T09:34:01.477Z,1031.91
2019-05-13T09:35:02.870Z,1031.94
2019-05-13T09:36:02.116Z,1031.89
2019-05-13T09:37:02.900Z,1031.90
2019-05-13T09:38:03.259Z,1031.89
2019-05-13T09:39:02.110Z,1031.94
2019-05-13T09:40:02.401Z,1031.91
2019-05-13T09:41:01.906Z,1031.97
2019-05-13T09:42:02.646Z,1031.92
2019-05-13T09:43:02.572Z,1031.94
2019-05-13T09:44:02.027Z,1031.89
2019-05-13T09:45:02.220Z,1031.85
2019-05-13T09:46:01.642Z,1031.90
2019-05-13T09:47:02.522Z,1031.93
2019-05-13T09:48:01.660Z,1031.90
2019-05-13T09:49:14.917Z,1031.87
2019-05-13T09:50:01.512Z,1031.86
2019-05-13T09:51:02.438Z,1031.89
2019-05-13T09:52:01.686Z,1031.90
2019-05-13T09:53:02.691Z,1031.89
2019-05-13T09:54:01.360Z,1031.94
2019-05-13T09:55:03.031Z,1031.89
2019-05-13T09:56:02.421Z,1031.91
2019-05-13T09:57:01.663Z,1031.89
2019-05-13T09:58:02.446Z,1031.90
2019-05-13T09:59:01.755Z,1031.85
2019-05-13T10:00:01.680Z,1031.86
2019-05-13T10:01:00.382Z,1031.91
2019-05-13T10:02:03.046Z,1031.91
2019-05-13T10:03:02.201Z,1031.91
2019-05-13T10:04:02.838Z,1031.94
2019-05-13T10:05:02.301Z,1031.90
2019-05-13T10:06:02.421Z,1031.88
2019-05-13T10:07:02.211Z,1031.87
2019-05-13T10:08:02.513Z,1031.82
2019-05-13T10:09:02.187Z,1031.84
2019-05-13T10:10:01.625Z,1031.90
2019-05-13T10:11:01.625Z,1031.87
2019-05-13T10:12:03.191Z,1031.85
2019-05-13T10:13:11.384Z,1031.87
2019-05-13T10:14:02.075Z,1031.86
2019-05-13T10:15:02.041Z,1031.86
2019-05-13T10:16:00.214Z,1031.90
2019-05-13T10:17:00.205Z,1031.82
2019-05-13T10:18:01.751Z,1031.84
2019-05-13T10:19:01.827Z,1031.85
2019-05-13T10:20:00.164Z,1031.86
2019-05-13T10:21:00.186Z,1031.87
2019-05-13T10:22:00.144Z,1031.82
2019-05-13T10:23:01.655Z,1031.78
2019-05-13T10:24:00.293Z,1031.78
2019-05-13T10:25:02.571Z,1031.75
2019-05-13T10:26:02.706Z,1031.76
2019-05-13T10:27:02.398Z,1031.77
2019-05-13T10:28:02.029Z,1031.73
2019-05-13T10:29:00.095Z,1031.75
2019-05-13T10:30:00.069Z,1031.75
2019-05-13T10:31:00.063Z,1031.70
2019-05-13T10:32:02.630Z,1031.75
2019-05-13T10:33:02.714Z,1031.74
2019-05-13T10:34:02.267Z,1031.73
2019-05-13T10:35:02.994Z,1031.71
2019-05-13T10:36:02.401Z,1031.68
2019-05-13T10:37:02.123Z,1031.66
2019-05-13T10:38:03.713Z,1031.69
2019-05-13T10:39:01.349Z,1031.69
2019-05-13T10:40:02.236Z,1031.71
2019-05-13T10:41:02.847Z,1031.66
2019-05-13T10:42:03.055Z,1031.69
2019-05-13T10:43:01.877Z,1031.68
2019-05-13T10:44:02.732Z,1031.71
2019-05-13T10:45:02.511Z,1031.70
2019-05-13T10:46:02.592Z,1031.71
2019-05-13T10:47:01.996Z,1031.70
2019-05-13T10:48:02.871Z,1031.66
2019-05-13T10:49:01.876Z,1031.60
2019-05-13T10:50:02.915Z,1031.61
2019-05-13T10:51:02.022Z,1031.63
2019-05-13T10:51:59.823Z,1031.68
2019-05-13T10:53:02.561Z,1031.54
2019-05-13T10:53:59.803Z,1031.54
2019-05-13T10:55:01.901Z,1031.52
2019-05-13T10:56:02.465Z,1031.50
2019-05-13T10:57:00.775Z,1031.47
2019-05-13T10:58:02.384Z,1031.46
2019-05-13T10:59:02.707Z,1031.45
2019-05-13T11:00:03.138Z,1031.43
2019-05-13T11:01:02.190Z,1031.43
2019-05-13T11:02:02.275Z,1031.49
2019-05-13T11:02:59.685Z,1031.45
2019-05-13T11:04:02.396Z,1031.45
2019-05-13T11:04:59.684Z,1031.43
2019-05-13T11:05:59.676Z,1031.45
2019-05-13T11:06:59.646Z,1031.52
2019-05-13T11:08:01.733Z,1031.52
2019-05-13T11:09:02.053Z,1031.46
2019-05-13T11:10:00.089Z,1031.47
2019-05-13T11:11:02.034Z,1031.47
2019-05-13T11:12:02.043Z,1031.43
2019-05-13T11:13:01.583Z,1031.46
2019-05-13T11:14:10.160Z,1031.42
2019-05-13T11:15:02.495Z,1031.45
2019-05-13T11:15:59.548Z,1031.42
2019-05-13T11:17:01.568Z,1031.39
2019-05-13T11:17:59.541Z,1031.42
2019-05-13T11:19:02.577Z,1031.40
2019-05-13T11:19:59.550Z,1031.44
2019-05-13T11:21:02.042Z,1031.40
2019-05-13T11:22:02.506Z,1031.41
2019-05-13T11:22:59.474Z,1031.41
2019-05-13T11:23:59.477Z,1031.39
2019-05-13T11:25:01.707Z,1031.37
2019-05-13T11:25:59.443Z,1031.37
2019-05-13T11:26:59.431Z,1031.37
2019-05-13T11:28:01.512Z,1031.36
2019-05-13T11:28:59.414Z,1031.33
2019-05-13T11:29:59.403Z,1031.28
2019-05-13T11:30:59.988Z,1031.27
2019-05-13T11:32:02.005Z,1031.28
2019-05-13T11:33:01.683Z,1031.29
2019-05-13T11:34:01.811Z,1031.27
2019-05-13T11:35:01.870Z,1031.22
2019-05-13T11:35:59.324Z,1031.21
2019-05-13T11:36:59.316Z,1031.21
2019-05-13T11:38:01.625Z,1031.14
2019-05-13T11:38:59.288Z,1031.17
2019-05-13T11:39:59.283Z,1031.19
2019-05-13T11:41:02.171Z,1031.13
2019-05-13T11:42:02.108Z,1031.14
2019-05-13T11:43:01.710Z,1031.13
2019-05-13T11:44:12.886Z,1031.14
2019-05-13T11:45:00.379Z,1031.16
2019-05-13T11:46:01.963Z,1031.14
2019-05-13T11:46:59.509Z,1031.17
2019-05-13T11:48:02.081Z,1031.14
2019-05-13T11:48:59.181Z,1031.11
2019-05-13T11:49:59.183Z,1031.11
2019-05-13T11:50:59.177Z,1031.09
2019-05-13T11:51:59.156Z,1031.08
2019-05-13T11:52:59.132Z,1031.08
2019-05-13T11:54:01.764Z,1031.09
2019-05-13T11:55:01.798Z,1031.13
2019-05-13T11:55:59.097Z,1031.12
2019-05-13T11:57:05.542Z,1031.09
2019-05-13T11:58:02.932Z,1031.05
2019-05-13T11:58:59.079Z,1031.09
2019-05-13T12:00:02.265Z,1031.01
2019-05-13T12:01:01.840Z,1030.95
2019-05-13T12:02:03.947Z,1031.00
2019-05-13T12:03:03.593Z,1030.97
2019-05-13T12:04:02.459Z,1030.93
2019-05-13T12:05:00.201Z,1030.84